Time;durP1;ratioP1;P1;durP2;ratioP2;P2;SDS_P1;SDS_P2;PMS_P1;PMS_P2;Temp;Humidity;BMP_temperature;BMP_pressure;BME280_temperature;BME280_humidity;BME280_pressure;Samples;Min_cycle;Max_cycle;Signal;HPM_P1;HPM_P2
2021/10/14 00:00:54;;;;;;;11.20;10.10;;;6.30;99.90;;;7.04;95.93;98946.16;5202835;28;20232;-59
2021/10/14 00:03:27;;;;;;;11.07;10.17;;;6.20;99.90;;;7.01;95.87;98951.91;5206052;28;20210;-58
2021/10/14 00:06:00;;;;;;;10.33;9.33;;;6.20;99.90;;;6.95;96.58;98949.72;5205042;28;20208;-59
2021/10/14 00:08:33;;;;;;;11.37;10.17;;;6.20;99.90;;;6.94;96.56;98945.34;5206587;28;20292;-56
2021/10/14 00:11:08;;;;;;;10.47;9.47;;;6.20;99.90;;;7.00;96.04;98945.00;5206035;28;20643;-54
2021/10/14 00:13:41;;;;;;;10.73;9.80;;;6.30;99.90;;;6.99;96.33;98950.88;5204950;28;20657;-58
2021/10/14 00:16:14;;;;;;;10.40;9.50;;;6.20;99.90;;;7.00;96.25;98955.19;5204300;28;20198;-58
2021/10/14 00:18:47;;;;;;;10.23;9.33;;;6.20;99.90;;;6.97;96.36;98957.44;5206367;28;20256;-57
2021/10/14 00:21:20;;;;;;;10.07;9.00;;;6.30;99.90;;;7.05;96.14;98961.56;5205986;28;20230;-59
2021/10/14 00:23:53;;;;;;;12.20;10.30;;;6.30;99.90;;;7.04;95.49;98962.34;5203521;28;20206;-59
2021/10/14 00:26:28;;;;;;;11.70;10.60;;;6.20;99.90;;;6.95;95.63;98961.50;5206122;28;20194;-59
2021/10/14 00:29:01;;;;;;;11.60;10.40;;;6.10;99.90;;;6.95;95.72;98959.88;5205157;28;20296;-58
2021/10/14 00:31:35;;;;;;;10.20;9.30;;;6.10;99.90;;;6.95;95.66;98961.50;5206326;28;20222;-59
2021/10/14 00:34:08;;;;;;;10.00;9.10;;;6.10;99.90;;;6.92;95.55;98957.03;5205778;28;20208;-59
2021/10/14 00:36:41;;;;;;;10.20;9.23;;;6.10;99.90;;;6.95;95.83;98958.97;5205988;28;20750;-57
2021/10/14 00:39:14;;;;;;;9.03;8.23;;;6.10;99.90;;;6.93;95.50;98953.75;5206811;28;20570;-58
2021/10/14 00:41:48;;;;;;;9.33;8.57;;;6.10;99.90;;;6.94;94.96;98954.63;5206524;28;20218;-59
2021/10/14 00:44:21;;;;;;;9.13;8.23;;;6.10;99.90;;;6.91;94.70;98949.28;5203761;28;20193;-59
2021/10/14 00:46:56;;;;;;;9.47;8.67;;;6.00;99.90;;;6.89;94.99;98943.16;5205940;28;20194;-59
2021/10/14 00:49:29;;;;;;;9.30;8.40;;;6.00;99.90;;;6.82;95.13;98945.94;5205748;28;20276;-58
2021/10/14 00:52:03;;;;;;;9.47;8.57;;;6.00;99.90;;;6.77;95.01;98946.41;5205694;28;20228;-58
2021/10/14 00:54:36;;;;;;;9.80;8.90;;;6.00;99.90;;;6.72;95.82;98947.66;5205670;28;20202;-58
2021/10/14 00:57:12;;;;;;;11.10;9.97;;;6.00;99.90;;;6.73;95.62;98946.91;5204929;28;20194;-57
2021/10/14 00:59:45;;;;;;;10.20;9.10;;;5.90;99.90;;;6.69;95.76;98952.44;5206856;28;20313;-57
2021/10/14 01:02:18;;;;;;;10.07;9.07;;;5.90;99.90;;;6.65;95.55;98944.44;5205499;28;20260;-57
2021/10/14 01:04:54;;;;;;;10.50;9.40;;;5.90;99.90;;;6.65;95.29;98945.31;5206457;28;20252;-57
2021/10/14 01:07:29;;;;;;;10.03;8.97;;;5.90;99.90;;;6.63;95.55;98944.28;5202816;28;20285;-59
2021/10/14 01:10:03;;;;;;;10.70;9.60;;;5.80;99.90;;;6.52;95.21;98950.03;5203953;28;20198;-59
2021/10/14 01:12:39;;;;;;;10.67;9.67;;;5.70;99.90;;;6.45;95.88;98950.25;5204743;28;20303;-58
2021/10/14 01:15:21;;;;;;;9.70;8.70;;;5.80;99.90;;;6.48;96.30;98953.06;5204796;28;20224;-58
2021/10/14 01:17:56;;;;;;;10.50;9.03;;;5.70;99.90;;;6.42;96.20;98949.97;5204598;28;20733;-57
2021/10/14 01:20:31;;;;;;;9.67;8.73;;;5.70;99.90;;;6.36;95.36;98963.00;5204708;28;20304;-59
2021/10/14 01:23:04;;;;;;;10.77;9.13;;;5.60;99.90;;;6.41;95.46;98968.47;5204485;28;21151;-57
2021/10/14 01:25:37;;;;;;;10.60;9.60;;;5.70;99.90;;;6.47;94.67;98964.00;5206227;28;20194;-57
2021/10/14 01:28:10;;;;;;;12.73;10.20;;;5.60;99.90;;;6.42;94.46;98957.59;5205491;28;20212;-59
2021/10/14 01:30:43;;;;;;;11.00;9.83;;;5.60;99.90;;;6.39;94.21;98952.25;5206359;28;20197;-57
2021/10/14 01:33:34;;;;;;;10.57;8.73;;;5.60;99.90;;;6.39;94.69;98959.84;5202741;28;20202;-58
2021/10/14 01:36:08;;;;;;;10.57;9.47;;;5.50;99.90;;;6.37;94.61;98956.28;5204005;28;20289;-59
2021/10/14 01:38:41;;;;;;;9.80;8.83;;;5.60;99.90;;;6.38;94.28;98950.44;5204580;28;20289;-56
2021/10/14 01:41:15;;;;;;;9.70;8.70;;;5.60;99.90;;;6.40;94.93;98941.31;5205485;28;20233;-59
2021/10/14 01:43:48;;;;;;;9.70;8.70;;;5.60;99.90;;;6.40;94.44;98936.25;5205826;28;20202;-59
2021/10/14 01:46:21;;;;;;;9.10;8.30;;;5.50;99.90;;;6.35;94.73;98934.91;5202680;28;20198;-59
2021/10/14 01:48:54;;;;;;;9.17;8.23;;;5.50;99.90;;;6.37;95.21;98931.78;5204128;28;20205;-57
2021/10/14 01:51:29;;;;;;;11.23;9.03;;;5.50;99.90;;;6.35;94.96;98933.28;5203853;28;20581;-58
2021/10/14 01:54:02;;;;;;;55.70;10.90;;;5.50;99.90;;;6.29;96.00;98936.16;5204617;28;20205;-57
2021/10/14 01:56:35;;;;;;;41.53;9.47;;;5.40;99.90;;;6.30;95.04;98925.25;5204308;28;20198;-59
2021/10/14 01:59:08;;;;;;;18.83;8.93;;;5.40;99.90;;;6.19;95.78;98931.00;5204415;28;20642;-57
2021/10/14 02:01:41;;;;;;;15.93;9.17;;;5.30;99.90;;;6.05;96.20;98927.19;5228366;22;20221;-64
2021/10/14 02:04:14;;;;;;;17.03;9.30;;;5.30;99.90;;;6.00;96.43;98933.50;5187177;28;20759;-63
2021/10/14 02:06:49;;;;;;;11.93;9.50;;;5.20;99.90;;;5.99;96.47;98930.84;5188241;28;20212;-63
2021/10/14 02:09:22;;;;;;;52.13;9.80;;;5.20;99.90;;;5.82;95.70;98930.13;5182279;28;20614;-64
2021/10/14 02:11:55;;;;;;;11.73;9.13;;;5.00;99.90;;;5.80;96.65;98934.16;5186668;28;20218;-63
2021/10/14 02:14:28;;;;;;;10.80;9.80;;;5.00;99.90;;;5.86;96.63;98938.91;5179729;28;20214;-63
2021/10/14 02:17:01;;;;;;;24.33;10.13;;;5.10;99.90;;;5.85;95.97;98932.06;5181507;28;20268;-64
2021/10/14 02:19:34;;;;;;;10.00;9.00;;;5.10;99.90;;;5.86;96.11;98933.84;5181958;28;20287;-63
2021/10/14 02:22:08;;;;;;;10.97;9.90;;;5.10;99.90;;;5.94;96.20;98932.94;5177701;28;20222;-63
2021/10/14 02:24:42;;;;;;;10.57;9.53;;;5.10;99.90;;;5.92;96.42;98939.47;5185492;28;20309;-63
2021/10/14 02:27:15;;;;;;;10.33;9.27;;;5.10;99.90;;;5.97;95.79;98942.47;5174476;28;20226;-63
2021/10/14 02:29:48;;;;;;;10.17;9.10;;;5.10;99.90;;;5.96;95.46;98940.69;5173509;28;20205;-63
2021/10/14 02:32:21;;;;;;;11.20;10.13;;;5.10;99.90;;;5.97;96.14;98939.94;5170820;28;20225;-63
2021/10/14 02:34:57;;;;;;;10.90;9.90;;;5.20;99.90;;;5.95;95.50;98937.28;5170546;28;20203;-63
2021/10/14 02:37:32;;;;;;;11.87;9.50;;;5.20;99.90;;;5.97;96.09;98939.94;5183567;28;20194;-63
2021/10/14 02:40:06;;;;;;;11.00;9.90;;;5.10;99.90;;;5.96;95.02;98939.06;5195743;28;20576;-63
2021/10/14 02:42:40;;;;;;;10.97;9.80;;;5.10;99.90;;;5.99;95.40;98926.63;5198254;28;20642;-63
2021/10/14 02:45:12;;;;;;;10.40;9.50;;;5.20;99.90;;;5.97;94.98;98934.88;5196514;28;20207;-63
2021/10/14 02:47:46;;;;;;;11.20;10.10;;;5.10;99.90;;;5.95;94.89;98933.81;5197421;28;20240;-63
2021/10/14 02:50:19;;;;;;;10.27;9.37;;;5.20;99.90;;;5.94;94.58;98926.97;5189189;28;20665;-62
2021/10/14 02:52:53;;;;;;;10.83;9.73;;;5.10;99.90;;;5.92;93.81;98926.78;5200095;28;20230;-63
2021/10/14 02:55:26;;;;;;;11.07;10.00;;;5.10;99.90;;;5.93;93.71;98925.16;5197589;28;20304;-63
2021/10/14 02:57:59;;;;;;;11.50;10.50;;;5.10;99.90;;;5.91;93.56;98931.72;5192603;28;20202;-63
2021/10/14 03:00:32;;;;;;;11.03;9.93;;;5.10;99.90;;;5.88;93.80;98924.72;5194617;28;20294;-61
2021/10/14 03:03:05;;;;;;;10.60;9.63;;;5.10;99.90;;;5.90;93.92;98919.81;5193699;28;20232;-63
2021/10/14 03:05:39;;;;;;;10.53;9.53;;;5.00;99.90;;;5.95;93.13;98922.06;5188068;28;20301;-63
2021/10/14 03:08:13;;;;;;;12.13;10.77;;;5.10;99.90;;;5.91;94.29;98921.59;5200490;28;20202;-63
2021/10/14 03:10:46;;;;;;;11.17;10.07;;;5.10;99.90;;;5.90;94.22;98922.34;5191141;28;20927;-63
2021/10/14 03:13:19;;;;;;;11.87;10.60;;;5.00;99.90;;;5.97;94.46;98919.63;5202424;28;20221;-63
2021/10/14 03:15:52;;;;;;;10.47;9.47;;;5.00;99.90;;;5.95;93.73;98908.44;5183539;28;20212;-63
2021/10/14 03:18:25;;;;;;;10.67;9.53;;;5.00;99.90;;;5.95;93.91;98916.06;5178416;28;20199;-62
2021/10/14 03:20:58;;;;;;;12.60;10.43;;;5.00;99.90;;;5.92;94.36;98923.34;5189956;28;20229;-63
2021/10/14 03:23:33;;;;;;;10.77;9.40;;;5.00;99.90;;;5.83;94.87;98926.81;5189417;28;20305;-63
2021/10/14 03:26:06;;;;;;;14.87;10.67;;;4.90;99.90;;;5.90;94.19;98929.97;5185547;28;20201;-63
2021/10/14 03:28:39;;;;;;;11.63;10.43;;;5.00;99.90;;;5.86;93.58;98928.75;5187233;28;20205;-63
2021/10/14 03:31:12;;;;;;;11.47;10.30;;;4.90;99.90;;;5.79;94.32;98922.22;5182385;28;20211;-63
2021/10/14 03:33:45;;;;;;;10.70;9.60;;;4.90;99.90;;;5.75;94.36;98922.72;5175844;28;20222;-63
2021/10/14 03:36:18;;;;;;;11.20;9.63;;;4.90;99.90;;;5.78;94.10;98911.94;5182614;28;20291;-63
2021/10/14 03:38:52;;;;;;;13.87;11.10;;;4.90;99.90;;;5.67;93.43;98920.22;5190800;28;20293;-63
2021/10/14 03:41:25;;;;;;;12.83;11.37;;;4.80;99.90;;;5.57;94.19;98914.25;5190065;28;20228;-62
2021/10/14 03:43:58;;;;;;;12.00;10.80;;;4.80;99.90;;;5.52;93.82;98914.59;5199150;28;20293;-63
2021/10/14 03:46:31;;;;;;;12.13;10.83;;;4.70;99.90;;;5.52;94.84;98915.50;5186692;28;20297;-63
2021/10/14 03:49:04;;;;;;;10.77;9.77;;;4.80;99.90;;;5.50;94.51;98926.25;5196247;28;20198;-63
2021/10/14 03:51:38;;;;;;;11.33;10.33;;;4.70;99.90;;;5.47;93.99;98924.31;5194427;28;20718;-63
2021/10/14 03:54:12;;;;;;;10.73;9.63;;;4.70;99.90;;;5.40;94.12;98922.81;5201864;28;20198;-63
2021/10/14 03:56:45;;;;;;;10.50;9.50;;;4.70;99.90;;;5.43;94.66;98930.72;5172079;28;20294;-63
2021/10/14 03:59:18;;;;;;;10.53;9.53;;;4.70;99.90;;;5.46;94.62;98929.22;5194421;28;20292;-63
2021/10/14 04:01:51;;;;;;;11.00;10.07;;;4.70;99.90;;;5.52;94.26;98937.41;5187880;28;20238;-61
2021/10/14 04:04:26;;;;;;;11.40;10.40;;;4.80;99.90;;;5.57;94.69;98936.19;5179668;28;20568;-63
2021/10/14 04:06:59;;;;;;;11.03;10.03;;;4.80;99.90;;;5.60;94.23;98939.03;5183662;28;20431;-63
2021/10/14 04:09:33;;;;;;;11.17;10.07;;;4.80;99.90;;;5.60;93.90;98942.44;5185954;28;20198;-63
2021/10/14 04:12:06;;;;;;;11.30;10.30;;;4.80;99.90;;;5.60;94.12;98944.09;5181339;28;20226;-63
2021/10/14 04:14:39;;;;;;;10.40;9.40;;;4.90;99.90;;;5.63;94.29;98949.44;5184313;28;20507;-63
2021/10/14 04:17:12;;;;;;;9.93;9.03;;;4.90;99.90;;;5.62;94.43;98950.22;5179679;28;20207;-63
2021/10/14 04:19:45;;;;;;;11.10;10.10;;;4.90;99.90;;;5.68;93.93;98954.97;5173519;28;20209;-63
2021/10/14 04:22:19;;;;;;;11.77;10.67;;;4.90;99.90;;;5.67;94.26;98954.06;5181119;28;20231;-63
2021/10/14 04:24:54;;;;;;;10.70;9.70;;;5.00;99.90;;;5.69;94.40;98957.63;5184835;28;20293;-64
2021/10/14 04:27:27;;;;;;;10.47;9.57;;;5.00;99.90;;;5.71;93.92;98958.66;5185457;28;20196;-64
2021/10/14 04:30:00;;;;;;;10.90;9.90;;;5.00;99.90;;;5.68;94.07;98953.31;5182259;28;20203;-64
2021/10/14 04:32:34;;;;;;;10.43;9.57;;;5.00;99.90;;;5.66;94.09;98959.88;5180481;28;20620;-64
2021/10/14 04:35:08;;;;;;;10.90;9.90;;;4.90;99.90;;;5.68;93.49;98957.50;5182446;28;20700;-63
2021/10/14 04:37:42;;;;;;;9.97;8.43;;;4.90;99.90;;;5.65;93.54;98960.63;5180241;28;20206;-63
2021/10/14 04:40:16;;;;;;;10.77;9.77;;;4.90;99.90;;;5.63;93.91;98955.41;5181802;28;20295;-63
2021/10/14 04:42:49;;;;;;;11.43;10.37;;;4.90;99.90;;;5.70;93.62;98959.44;5187997;28;20224;-63
2021/10/14 04:45:23;;;;;;;11.23;10.13;;;4.90;99.90;;;5.65;93.95;98964.06;5180849;28;20203;-64
2021/10/14 04:47:56;;;;;;;10.90;9.97;;;4.90;99.90;;;5.62;94.27;98967.97;5187454;28;20209;-64
2021/10/14 04:50:29;;;;;;;11.07;10.17;;;4.90;99.90;;;5.69;94.35;98972.84;5193382;28;20206;-63
2021/10/14 04:53:02;;;;;;;11.50;10.50;;;4.90;99.90;;;5.70;94.64;98961.97;5190421;28;20219;-62
2021/10/14 04:55:36;;;;;;;11.30;10.30;;;5.00;99.90;;;5.77;94.14;98964.31;5196192;28;20578;-64
2021/10/14 04:58:09;;;;;;;11.57;10.37;;;5.00;99.90;;;5.81;94.05;98961.34;5175770;28;20206;-63
2021/10/14 05:00:42;;;;;;;10.57;9.50;;;5.10;99.90;;;5.80;94.35;98956.97;5186938;28;20285;-63
2021/10/14 05:03:18;;;;;;;10.33;9.50;;;5.00;99.90;;;5.75;93.94;98954.78;5176354;28;20722;-63
2021/10/14 05:05:52;;;;;;;10.40;9.50;;;5.00;99.90;;;5.81;93.85;98966.41;5174074;28;20209;-63
2021/10/14 05:08:25;;;;;;;10.37;9.37;;;5.00;99.90;;;5.82;93.92;98963.09;5191273;28;20702;-63
2021/10/14 05:10:59;;;;;;;12.00;10.80;;;5.10;99.90;;;5.87;93.71;98964.44;5184182;28;20294;-63
2021/10/14 05:13:32;;;;;;;10.93;9.83;;;5.20;99.90;;;5.88;94.17;98963.66;5190157;28;20312;-62
2021/10/14 05:16:06;;;;;;;10.93;9.90;;;5.20;99.90;;;5.94;94.18;98962.50;5195108;28;20204;-63
2021/10/14 05:18:40;;;;;;;11.00;10.00;;;5.20;99.90;;;5.96;93.52;98966.97;5186303;28;20605;-63
2021/10/14 05:21:13;;;;;;;9.60;8.70;;;5.20;99.90;;;5.96;93.56;98961.00;5177061;28;20290;-63
2021/10/14 05:23:46;;;;;;;10.53;9.43;;;5.20;99.90;;;5.98;93.69;98962.00;5174923;28;20234;-63
2021/10/14 05:26:20;;;;;;;11.07;10.07;;;5.20;99.90;;;5.99;92.72;98956.22;5172237;28;20559;-64
2021/10/14 05:28:54;;;;;;;10.67;9.77;;;5.20;99.90;;;5.98;92.73;98955.31;5184211;28;20292;-64
2021/10/14 05:31:27;;;;;;;10.50;9.50;;;5.10;99.90;;;5.96;92.94;98953.38;5198510;28;20289;-64
2021/10/14 05:34:01;;;;;;;13.57;12.37;;;5.10;99.90;;;5.90;93.23;98950.25;5182506;28;20200;-62
2021/10/14 05:36:34;;;;;;;11.87;10.77;;;5.20;99.90;;;5.92;93.17;98948.72;5178835;28;20198;-63
2021/10/14 05:39:07;;;;;;;11.13;10.03;;;5.20;99.90;;;5.90;93.26;98945.19;5192177;28;20232;-64
2021/10/14 05:41:41;;;;;;;10.40;9.40;;;5.20;99.90;;;5.91;93.29;98952.91;5197540;28;20636;-63
2021/10/14 05:44:14;;;;;;;10.67;9.70;;;5.20;99.90;;;5.98;93.34;98955.31;5190746;28;20222;-64
2021/10/14 05:46:48;;;;;;;10.30;9.30;;;5.30;99.90;;;6.02;93.13;98964.09;5195763;28;20856;-63
2021/10/14 05:49:21;;;;;;;9.93;9.07;;;5.30;99.90;;;6.04;93.77;98960.97;5189996;28;20566;-63
2021/10/14 05:51:54;;;;;;;11.53;10.43;;;5.30;99.90;;;6.08;93.63;98974.81;5194234;28;20317;-63
2021/10/14 05:54:27;;;;;;;10.43;9.53;;;5.40;99.90;;;6.12;93.96;98966.72;5198106;28;20215;-63
2021/10/14 05:57:02;;;;;;;10.57;9.67;;;5.40;99.90;;;6.14;93.99;98970.28;5198790;28;20198;-64
2021/10/14 05:59:35;;;;;;;12.00;10.80;;;5.40;99.90;;;6.22;93.39;98961.75;5195103;28;20297;-63
2021/10/14 06:02:08;;;;;;;10.73;9.83;;;5.40;99.90;;;6.24;93.82;98957.72;5193118;28;20708;-63
2021/10/14 06:04:41;;;;;;;11.90;10.90;;;5.50;99.90;;;6.25;93.66;98962.03;5188795;28;20721;-62
2021/10/14 06:07:14;;;;;;;10.97;9.87;;;5.50;99.90;;;6.23;94.05;98963.50;5189096;28;20289;-63
2021/10/14 06:09:47;;;;;;;11.50;10.47;;;5.50;99.90;;;6.26;94.01;98968.88;5185185;28;20198;-63
2021/10/14 06:12:21;;;;;;;11.93;10.83;;;5.50;99.90;;;6.28;93.56;98957.22;5192054;28;20224;-63
2021/10/14 06:14:54;;;;;;;12.03;10.93;;;5.50;99.90;;;6.30;94.09;98953.19;5185225;28;20207;-62
2021/10/14 06:17:27;;;;;;;11.50;10.50;;;5.60;99.90;;;6.32;93.59;98954.22;5183984;28;20257;-63
2021/10/14 06:20:01;;;;;;;11.30;10.23;;;5.60;99.90;;;6.34;94.38;98961.09;5176546;28;20194;-63
2021/10/14 06:22:34;;;;;;;11.60;10.60;;;5.60;99.90;;;6.40;93.90;98956.56;5181265;28;20646;-63
2021/10/14 06:25:09;;;;;;;11.40;10.30;;;5.70;99.90;;;6.46;94.40;98957.09;5194723;28;20319;-63
2021/10/14 06:27:43;;;;;;;13.43;11.03;;;5.80;99.90;;;6.56;94.03;98954.66;5196096;28;20284;-63
2021/10/14 06:30:16;;;;;;;11.30;10.30;;;5.90;99.90;;;6.65;93.97;98952.06;5195354;28;20279;-62
2021/10/14 06:32:49;;;;;;;12.13;10.90;;;6.00;99.90;;;6.66;94.15;98953.81;5192585;28;20214;-63
2021/10/14 06:35:23;;;;;;;11.37;10.33;;;6.00;99.90;;;6.79;93.89;98963.44;5196709;28;20194;-63
2021/10/14 06:37:58;;;;;;;12.60;11.33;;;6.00;99.90;;;6.79;92.89;98958.38;5185420;28;20653;-63
2021/10/14 06:40:31;;;;;;;11.10;10.00;;;6.10;99.90;;;6.90;93.42;98955.13;5199638;28;20255;-64
2021/10/14 06:43:05;;;;;;;11.77;10.70;;;6.20;99.90;;;7.01;92.73;98954.44;5180745;28;20227;-63
2021/10/14 06:45:38;;;;;;;10.67;9.67;;;6.30;99.90;;;7.12;92.41;98953.72;5194628;28;20200;-63
2021/10/14 06:48:12;;;;;;;10.57;9.63;;;6.40;99.90;;;7.13;92.20;98955.50;5192118;28;20207;-63
2021/10/14 06:50:46;;;;;;;10.63;9.53;;;6.40;99.90;;;7.25;92.39;98953.16;5196476;28;20203;-63
2021/10/14 06:53:19;;;;;;;11.47;10.47;;;6.50;99.90;;;7.26;91.19;98956.59;5179792;28;20213;-62
2021/10/14 06:55:52;;;;;;;9.77;8.87;;;6.50;99.90;;;7.38;92.09;98960.19;5178665;28;20594;-63
2021/10/14 06:58:27;;;;;;;9.33;8.43;;;6.70;99.90;;;7.42;91.43;98962.25;5191667;28;20290;-62
2021/10/14 07:01:00;;;;;;;9.97;8.97;;;6.60;99.90;;;7.45;91.20;98957.44;5188774;28;20204;-63
2021/10/14 07:03:33;;;;;;;11.03;9.93;;;6.70;99.90;;;7.52;90.88;98962.28;5188878;28;20226;-63
2021/10/14 07:06:06;;;;;;;11.03;10.03;;;6.80;99.90;;;7.62;90.56;98969.94;5181897;28;20212;-63
2021/10/14 07:08:39;;;;;;;10.47;9.57;;;6.90;99.90;;;7.71;90.36;98967.31;5189284;28;20578;-63
2021/10/14 07:11:12;;;;;;;10.03;8.97;;;6.90;99.90;;;7.76;90.05;98972.81;5183413;28;20297;-63
2021/10/14 07:13:47;;;;;;;9.23;8.30;;;7.00;99.90;;;7.76;89.24;98975.34;5182636;28;20219;-63
2021/10/14 07:16:20;;;;;;;8.60;7.80;;;7.00;99.90;;;7.83;88.59;98980.19;5179152;28;20292;-63
2021/10/14 07:18:54;;;;;;;9.73;8.90;;;7.00;99.90;;;7.90;88.66;98978.31;5179859;28;20210;-63
2021/10/14 07:21:31;;;;;;;9.37;8.40;;;7.10;99.90;;;7.95;88.11;98973.59;5176714;28;20198;-63
2021/10/14 07:24:05;;;;;;;8.93;8.13;;;7.10;99.90;;;8.01;87.52;98978.31;5183092;28;21103;-63
2021/10/14 07:26:38;;;;;;;8.70;7.97;;;7.20;99.90;;;8.05;87.70;98981.25;5180283;28;20660;-63
2021/10/14 07:29:12;;;;;;;9.20;8.40;;;7.20;99.90;;;8.13;86.79;98985.34;5181145;28;20197;-63
2021/10/14 07:31:45;;;;;;;8.10;7.40;;;7.20;99.90;;;8.07;86.93;98987.38;5181006;28;20288;-63
2021/10/14 07:34:18;;;;;;;7.83;7.10;;;7.20;99.90;;;8.09;86.47;98996.03;5176574;28;20672;-63
2021/10/14 07:36:51;;;;;;;8.00;7.20;;;7.20;99.90;;;8.15;85.55;98992.22;5176887;28;20215;-62
2021/10/14 07:39:25;;;;;;;7.00;6.33;;;7.20;99.90;;;8.16;85.29;98989.81;5182554;28;20226;-63
2021/10/14 07:41:58;;;;;;;7.30;6.70;;;7.30;99.90;;;8.18;84.74;98982.28;5178441;28;20227;-63
2021/10/14 07:44:32;;;;;;;7.47;6.77;;;7.30;99.90;;;8.32;85.04;98981.78;5191278;28;20222;-63
2021/10/14 07:47:06;;;;;;;7.70;6.90;;;7.40;99.90;;;8.42;85.04;98986.06;5183390;28;20202;-63
2021/10/14 07:49:39;;;;;;;7.43;6.73;;;7.50;99.90;;;8.45;84.56;98997.38;5181957;28;20277;-63
2021/10/14 07:52:12;;;;;;;7.47;6.77;;;7.50;99.90;;;8.51;84.24;98995.34;5185436;28;20314;-64
2021/10/14 07:54:45;;;;;;;7.90;7.20;;;7.60;99.90;;;8.51;83.12;98994.47;5175202;28;20203;-63
2021/10/14 07:57:18;;;;;;;7.77;7.10;;;7.60;99.90;;;8.42;83.60;98996.25;5175819;28;20636;-64
2021/10/14 07:59:52;;;;;;;7.10;6.50;;;7.60;99.90;;;8.50;84.05;98992.69;5179055;28;20690;-63
2021/10/14 08:02:25;;;;;;;6.70;6.20;;;7.60;99.90;;;8.69;83.29;98984.88;5189440;22;20231;-66
2021/10/14 08:04:59;;;;;;;6.80;6.20;;;7.70;99.90;;;8.85;82.44;98987.06;5207801;28;20220;-66
2021/10/14 08:07:32;;;;;;;6.23;5.73;;;7.80;99.90;;;9.02;80.93;98987.66;5205977;28;20257;-65
2021/10/14 08:10:06;;;;;;;6.37;5.80;;;7.90;99.90;;;9.13;81.42;98982.50;5206545;28;20198;-64
2021/10/14 08:12:39;;;;;;;6.35;5.85;;;8.00;99.90;;;9.20;81.21;98992.44;5206249;28;20300;-67
2021/10/14 08:15:13;;;;;;;7.00;6.35;;;8.10;99.90;;;9.16;80.52;98988.78;5205698;28;20202;-66
2021/10/14 08:17:46;;;;;;;6.73;6.13;;;8.20;99.90;;;9.13;81.88;98993.63;5199960;28;20213;-66
2021/10/14 08:20:19;;;;;;;7.17;6.57;;;8.30;99.90;;;9.26;81.03;98987.84;5204561;28;20201;-66
2021/10/14 08:22:53;;;;;;;6.72;6.05;;;8.30;99.90;;;9.44;80.46;98985.84;5205143;28;20308;-66
2021/10/14 08:25:26;;;;;;;6.32;5.72;;;8.50;99.90;;;9.54;79.25;98985.84;5205250;28;20318;-65
2021/10/14 08:27:59;;;;;;;6.57;5.95;;;8.60;99.90;;;9.84;78.04;98982.25;5200182;28;20210;-66
2021/10/14 08:30:33;;;;;;;6.47;5.82;;;8.80;99.90;;;9.92;79.34;98980.28;5207288;28;20684;-65
2021/10/14 08:33:06;;;;;;;5.68;5.18;;;8.90;99.90;;;10.04;78.30;98971.00;5205925;28;20702;-65
2021/10/14 08:35:41;;;;;;;5.68;5.18;;;9.00;99.90;;;10.12;77.50;98980.16;5206001;28;20228;-65
2021/10/14 08:38:14;;;;;;;5.63;5.13;;;9.10;99.90;;;10.20;76.26;98977.31;5205579;28;20566;-66
2021/10/14 08:40:51;;;;;;;5.85;5.25;;;9.20;99.90;;;10.26;76.21;98976.09;5206921;28;20255;-66
2021/10/14 08:43:28;;;;;;;6.38;5.78;;;9.10;99.90;;;10.36;75.97;98973.50;5206559;28;20300;-66
2021/10/14 08:46:04;;;;;;;6.00;5.40;;;9.20;99.90;;;10.51;75.83;98967.78;5205777;28;20225;-66
2021/10/14 08:48:37;;;;;;;5.35;4.85;;;9.30;99.90;;;10.55;74.40;98973.22;5206462;28;20197;-66
2021/10/14 08:51:10;;;;;;;5.75;5.03;;;9.50;99.90;;;10.62;74.50;98964.38;5206967;28;20683;-65
2021/10/14 08:53:46;;;;;;;6.45;5.00;;;9.50;99.90;;;10.80;72.62;98962.28;5203573;28;20224;-66
2021/10/14 08:56:19;;;;;;;5.93;5.25;;;9.70;99.90;;;10.88;72.66;98955.16;5206566;28;20252;-65
2021/10/14 08:58:52;;;;;;;5.75;5.25;;;9.80;99.90;;;11.01;72.61;98955.28;5205757;28;20202;-67
2021/10/14 09:01:27;;;;;;;4.97;4.55;;;9.90;99.90;;;11.19;71.19;98955.75;5202890;28;20657;-66
2021/10/14 09:04:14;;;;;;;6.63;5.30;;;10.10;99.90;;;11.25;71.59;98954.50;5205490;28;20257;-63
2021/10/14 09:06:47;;;;;;;7.53;5.20;;;10.20;99.90;;;11.43;71.31;98957.47;5199987;28;20296;-66
2021/10/14 09:09:36;;;;;;;5.47;4.97;;;10.40;99.90;;;11.47;71.42;98962.06;5205639;28;20206;-65
2021/10/14 09:12:14;;;;;;;6.40;5.00;;;10.50;99.90;;;11.60;70.60;98956.13;5202628;28;20198;-66
2021/10/14 09:14:55;;;;;;;5.60;5.10;;;10.60;99.90;;;11.77;70.00;98961.53;5206171;28;20301;-64
2021/10/14 09:17:51;;;;;;;5.15;4.47;;;10.70;99.90;;;11.76;69.52;98962.31;5203043;28;20296;-66
2021/10/14 09:20:37;;;;;;;5.05;4.57;;;10.70;99.90;;;12.08;68.85;98962.03;5201400;28;20190;-65
2021/10/14 09:23:16;;;;;;;4.85;4.38;;;10.90;99.90;;;12.22;67.17;98952.72;5202354;28;20225;-62
2021/10/14 09:25:52;;;;;;;4.78;4.28;;;11.00;99.90;;;12.44;67.04;98949.94;5202626;28;20297;-64
2021/10/14 09:28:28;;;;;;;5.15;4.65;;;11.40;99.90;;;12.66;65.91;98945.44;5197024;28;20204;-66
2021/10/14 09:31:04;;;;;;;5.28;4.65;;;11.70;99.90;;;12.69;64.83;98939.63;5204766;28;20198;-66
2021/10/14 09:33:41;;;;;;;5.45;4.95;;;11.70;99.90;;;12.91;64.40;98930.00;5204989;28;20751;-65
2021/10/14 09:36:21;;;;;;;5.40;4.30;;;11.90;99.90;;;13.04;63.73;98935.13;5203739;28;20716;-66
2021/10/14 09:39:02;;;;;;;4.88;4.45;;;11.90;99.90;;;13.03;61.94;98928.22;5197015;28;20736;-66
2021/10/14 09:41:39;;;;;;;4.60;4.20;;;11.90;99.90;;;13.16;63.82;98931.56;5203642;28;20608;-66
2021/10/14 09:44:15;;;;;;;4.95;4.20;;;12.10;99.90;;;13.15;62.99;98930.69;5205111;28;20236;-64
2021/10/14 09:46:50;;;;;;;4.30;3.95;;;12.10;99.90;;;13.23;63.25;98926.94;5204360;28;20693;-66
2021/10/14 09:49:29;;;;;;;4.18;3.60;;;12.10;99.90;;;13.39;62.78;98939.13;5203494;28;20201;-64
2021/10/14 09:52:03;;;;;;;4.35;3.95;;;12.20;99.90;;;13.56;60.40;98934.13;5202659;28;20731;-66
2021/10/14 09:54:36;;;;;;;4.30;3.90;;;12.30;99.90;;;13.60;61.60;98934.44;5202105;28;20193;-65
2021/10/14 09:57:09;;;;;;;4.68;4.32;;;12.50;99.90;;;13.69;60.34;98931.53;5205292;28;20202;-66
2021/10/14 09:59:45;;;;;;;4.90;4.32;;;12.70;99.90;;;13.81;60.20;98927.16;5198187;28;20236;-64
2021/10/14 10:02:18;;;;;;;3.97;3.67;;;12.70;99.90;;;13.90;59.33;98925.13;5197975;28;20238;-65
2021/10/14 10:04:53;;;;;;;4.68;4.18;;;12.60;99.90;;;13.93;58.77;98920.19;5199438;28;20229;-65
2021/10/14 10:07:26;;;;;;;4.82;3.95;;;12.80;99.90;;;13.90;58.91;98916.53;5196337;28;20212;-64
2021/10/14 10:09:59;;;;;;;4.30;3.90;;;12.80;99.90;;;13.90;60.44;98925.13;5194969;28;20527;-64
2021/10/14 10:12:33;;;;;;;4.43;4.03;;;12.80;99.90;;;13.96;58.81;98919.47;5199215;28;20245;-66
2021/10/14 10:15:12;;;;;;;4.13;3.83;;;12.80;99.90;;;14.03;58.86;98915.63;5198740;28;20202;-66
2021/10/14 10:17:45;;;;;;;6.13;3.78;;;12.90;99.90;;;14.07;58.89;98910.75;5196698;28;20198;-64
2021/10/14 10:20:39;;;;;;;3.92;3.63;;;12.90;99.90;;;14.16;57.74;98898.47;5202489;28;20208;-64
2021/10/14 10:23:12;;;;;;;4.40;4.03;;;12.90;99.90;;;14.16;57.48;98908.75;5193489;28;20218;-65
2021/10/14 10:25:46;;;;;;;4.72;4.22;;;12.90;99.90;;;14.15;58.15;98906.06;5202277;28;20665;-64
2021/10/14 10:28:37;;;;;;;3.97;3.67;;;12.90;99.90;;;14.11;58.42;98898.97;5194290;28;20200;-66
2021/10/14 10:31:10;;;;;;;4.20;3.58;;;12.90;99.90;;;14.14;57.65;98899.16;5198756;28;20207;-63
2021/10/14 10:33:53;;;;;;;4.18;3.72;;;13.00;99.90;;;14.28;58.13;98897.38;5196977;28;20584;-66
2021/10/14 10:36:55;;;;;;;5.97;3.60;;;13.10;99.90;;;14.20;58.54;98895.25;5203850;28;20190;-65
2021/10/14 10:39:46;;;;;;;4.03;3.70;;;13.10;99.90;;;14.29;57.83;98894.91;5153906;28;20284;-65
2021/10/14 10:42:25;;;;;;;3.95;3.40;;;13.00;99.90;;;14.30;58.28;98895.81;5202552;28;20306;-66
2021/10/14 10:45:10;;;;;;;4.57;4.18;;;13.00;99.90;;;14.31;57.86;98895.91;5204088;28;20251;-66
2021/10/14 10:47:49;;;;;;;4.55;3.75;;;12.90;99.90;;;14.28;58.32;98893.16;5202178;28;20285;-65
2021/10/14 10:50:25;;;;;;;3.72;3.42;;;12.90;99.90;;;14.29;57.87;98897.50;5203748;28;20209;-66
2021/10/14 10:53:06;;;;;;;3.97;3.67;;;12.90;99.90;;;14.09;59.00;98885.13;5199648;28;20587;-66
2021/10/14 10:55:43;;;;;;;3.58;3.28;;;12.90;99.90;;;14.10;59.51;98890.34;5193894;28;20664;-65